createdAt,value
2023-04-22T10:36:06.110Z,998.09
2023-04-22T10:37:23.404Z,998.07
2023-04-22T10:38:23.375Z,998.05
2023-04-22T10:39:23.383Z,998.01
2023-04-22T10:40:23.361Z,998.03
2023-04-22T10:41:23.347Z,998.11
2023-04-22T10:42:23.342Z,998.11
2023-04-22T10:43:23.302Z,998.11
2023-04-22T10:44:23.310Z,998.12
2023-04-22T10:45:23.272Z,998.11
2023-04-22T10:46:23.301Z,998.16
2023-04-22T10:47:23.305Z,998.25
2023-04-22T10:48:23.255Z,998.18
2023-04-22T10:49:23.264Z,998.27
2023-04-22T10:50:23.215Z,998.13
2023-04-22T10:51:23.214Z,998.14
2023-04-22T10:52:23.218Z,998.19
2023-04-22T10:53:23.185Z,998.18
2023-04-22T10:54:23.194Z,998.26
2023-04-22T10:55:23.160Z,998.20
2023-04-22T10:56:23.175Z,998.24
2023-04-22T10:57:23.136Z,998.30
2023-04-22T10:58:23.152Z,998.24
2023-04-22T10:59:23.099Z,998.22
2023-04-22T11:00:23.586Z,998.24
2023-04-22T11:01:23.118Z,998.26
2023-04-22T11:02:23.095Z,998.25
2023-04-22T11:03:23.196Z,998.29
2023-04-22T11:04:23.209Z,998.26
2023-04-22T11:05:25.889Z,998.28
2023-04-22T11:10:26.396Z,998.27
2023-04-22T11:11:26.328Z,998.22
2023-04-22T11:12:26.319Z,998.22
2023-04-22T11:13:26.303Z,998.24
2023-04-22T11:14:26.320Z,998.25
2023-04-22T11:15:26.312Z,998.20
2023-04-22T11:16:26.306Z,998.24
2023-04-22T11:17:26.286Z,998.19
2023-04-22T11:18:26.275Z,998.20
2023-04-22T11:19:26.226Z,998.19
2023-04-22T11:20:26.259Z,998.19
2023-04-22T11:21:26.226Z,998.21
2023-04-22T11:22:26.207Z,998.19
2023-04-22T11:23:26.184Z,998.21
2023-04-22T11:24:26.197Z,998.22
2023-04-22T11:25:26.177Z,998.23
2023-04-22T11:26:26.157Z,998.29
2023-04-22T11:27:26.169Z,998.25
2023-04-22T11:28:26.155Z,998.31
2023-04-22T11:29:26.224Z,998.26
2023-04-22T11:30:26.131Z,998.32
2023-04-22T11:31:26.094Z,998.29
2023-04-22T11:32:26.120Z,998.27
2023-04-22T11:33:26.081Z,998.35
2023-04-22T11:34:26.051Z,998.34
2023-04-22T11:35:26.048Z,998.37
2023-04-22T11:36:26.035Z,998.36
2023-04-22T11:37:26.033Z,998.37
2023-04-22T11:38:26.060Z,998.33
2023-04-22T11:39:26.013Z,998.38
2023-04-22T11:40:30.161Z,998.42
2023-04-22T11:41:25.993Z,998.33
2023-04-22T11:42:25.982Z,998.37
2023-04-22T11:43:25.943Z,998.36
2023-04-22T11:44:25.938Z,998.32
2023-04-22T11:45:25.955Z,998.33
2023-04-22T11:46:25.966Z,998.35
2023-04-22T11:47:25.933Z,998.29
2023-04-22T11:48:25.888Z,998.38
2023-04-22T11:49:25.887Z,998.37
2023-04-22T11:50:25.879Z,998.40
2023-04-22T11:51:25.848Z,998.38
2023-04-22T11:52:25.862Z,998.40
2023-04-22T11:53:25.828Z,998.38
2023-04-22T11:54:25.838Z,998.36
2023-04-22T11:55:25.819Z,998.43
2023-04-22T11:56:25.816Z,998.41
2023-04-22T11:57:25.800Z,998.38
2023-04-22T11:58:25.798Z,998.40
2023-04-22T11:59:25.784Z,998.39
2023-04-22T12:00:25.800Z,998.43
2023-04-22T12:01:25.751Z,998.42
2023-04-22T12:02:25.905Z,998.39
2023-04-22T12:03:25.845Z,998.36
2023-04-22T12:04:25.762Z,998.38
2023-04-22T12:05:25.744Z,998.38
2023-04-22T12:06:25.706Z,998.32
2023-04-22T12:07:25.683Z,998.38
2023-04-22T12:08:25.661Z,998.33
2023-04-22T12:09:25.704Z,998.31
2023-04-22T12:10:25.669Z,998.29
2023-04-22T12:11:25.617Z,998.26
2023-04-22T12:12:25.612Z,998.26
2023-04-22T12:13:25.593Z,998.24
2023-04-22T12:14:25.609Z,998.25
2023-04-22T12:15:25.638Z,998.29
2023-04-22T12:16:25.568Z,998.28
2023-04-22T12:17:25.629Z,998.27
2023-04-22T12:18:25.568Z,998.27
2023-04-22T12:22:05.035Z,998.23
2023-04-22T12:23:04.997Z,998.20
2023-04-22T12:26:13.203Z,998.15
2023-04-22T12:27:13.177Z,998.18
2023-04-22T12:28:13.181Z,998.23
2023-04-22T12:29:13.161Z,998.24
2023-04-22T12:30:13.182Z,998.25
2023-04-22T12:31:13.173Z,998.24
2023-04-22T12:32:13.174Z,998.25
2023-04-22T12:33:13.144Z,998.18
2023-04-22T12:34:13.147Z,998.25
2023-04-22T12:35:13.148Z,998.24
2023-04-22T12:36:13.141Z,998.25
2023-04-22T12:37:13.125Z,998.21
2023-04-22T12:38:13.130Z,998.18
2023-04-22T12:39:13.110Z,998.13
2023-04-22T12:40:13.117Z,998.11
2023-04-22T12:41:13.108Z,998.09
2023-04-22T12:42:13.092Z,998.03
2023-04-22T12:43:13.084Z,998.07
2023-04-22T12:44:13.084Z,998.02
2023-04-22T12:45:13.066Z,998.05
2023-04-22T12:46:13.068Z,998.04
2023-04-22T12:47:13.052Z,998.08
2023-04-22T12:48:13.051Z,998.09
2023-04-22T12:49:13.037Z,998.09
2023-04-22T12:50:13.020Z,998.01
2023-04-22T12:51:13.014Z,998.02
2023-04-22T12:52:13.025Z,997.98
2023-04-22T15:01:52.257Z,998.12
2023-04-22T15:02:52.214Z,998.10
